Time;durP1;ratioP1;P1;durP2;ratioP2;P2;SDS_P1;SDS_P2;PMS_P1;PMS_P2;Temp;Humidity;BMP_temperature;BMP_pressure;BME280_temperature;BME280_humidity;BME280_pressure;Samples;Min_cycle;Max_cycle;Signal;HPM_P1;HPM_P2
2024/03/19 00:01:42;;;;;;;7.50;3.37;;;9.70;99.90;;;;;;5054344;28;20163;-70
2024/03/19 00:04:08;;;;;;;4.30;3.43;;;9.70;99.90;;;;;;5051434;28;20955;-70
2024/03/19 00:06:34;;;;;;;6.67;4.30;;;9.70;99.90;;;;;;5052562;28;20646;-70
2024/03/19 00:09:00;;;;;;;4.93;3.73;;;9.80;99.90;;;;;;5054140;28;20605;-70
2024/03/19 00:11:25;;;;;;;9.07;4.30;;;9.80;99.90;;;;;;5054223;28;20401;-70
2024/03/19 00:13:51;;;;;;;5.97;4.77;;;9.90;99.90;;;;;;5048056;28;20527;-70
2024/03/19 00:16:17;;;;;;;6.80;3.77;;;9.90;99.90;;;;;;5053638;28;20705;-70
2024/03/19 00:18:42;;;;;;;6.60;2.83;;;9.90;99.90;;;;;;5053947;28;20198;-70
2024/03/19 00:21:12;;;;;;;5.33;3.63;;;10.00;99.90;;;;;;5052738;28;20178;-70
2024/03/19 00:23:37;;;;;;;4.67;3.67;;;10.00;99.90;;;;;;5049337;28;20646;-70
2024/03/19 00:26:05;;;;;;;7.40;3.87;;;10.00;99.90;;;;;;5050937;28;20417;-70
2024/03/19 00:28:31;;;;;;;4.77;3.77;;;10.10;99.90;;;;;;5053537;28;20197;-70
2024/03/19 00:30:57;;;;;;;7.30;4.30;;;10.00;99.90;;;;;;5052226;28;20409;-70
2024/03/19 00:33:22;;;;;;;4.63;3.40;;;10.00;99.90;;;;;;5051797;28;20559;-70
2024/03/19 00:35:48;;;;;;;8.10;4.73;;;10.10;99.90;;;;;;5049510;28;20205;-70
2024/03/19 00:38:13;;;;;;;7.30;4.10;;;10.00;99.90;;;;;;5053429;28;20190;-70
2024/03/19 00:40:42;;;;;;;6.80;3.20;;;10.00;99.90;;;;;;5053694;28;20178;-69
2024/03/19 00:43:08;;;;;;;7.53;3.80;;;9.90;99.90;;;;;;5052751;28;20195;-69
2024/03/19 00:45:33;;;;;;;4.80;3.83;;;9.80;99.90;;;;;;5049100;28;20511;-69
2024/03/19 00:47:59;;;;;;;5.17;3.33;;;9.60;99.90;;;;;;5052716;28;20198;-69
2024/03/19 00:50:25;;;;;;;5.80;3.80;;;9.60;99.90;;;;;;5053266;28;20605;-69
2024/03/19 00:52:51;;;;;;;6.47;3.93;;;9.50;99.90;;;;;;5053203;28;20521;-70
2024/03/19 00:55:16;;;;;;;7.13;3.53;;;9.40;99.90;;;;;;5050722;28;20673;-70
2024/03/19 00:57:42;;;;;;;6.43;3.43;;;9.30;99.90;;;;;;5053006;28;20417;-69
2024/03/19 01:00:11;;;;;;;3.60;3.30;;;9.20;99.90;;;;;;5052359;28;20845;-70
2024/03/19 01:02:38;;;;;;;5.03;3.67;;;9.10;99.90;;;;;;5051104;28;20517;-70
2024/03/19 01:05:08;;;;;;;5.17;3.33;;;9.00;99.90;;;;;;5052517;28;20415;-70
2024/03/19 01:07:38;;;;;;;9.97;3.80;;;8.90;99.90;;;;;;5052980;28;20416;-70
2024/03/19 01:10:04;;;;;;;6.07;3.93;;;8.90;99.90;;;;;;5053167;28;20405;-70
2024/03/19 01:12:30;;;;;;;7.77;4.00;;;8.80;99.90;;;;;;5052208;28;20504;-70
2024/03/19 01:14:56;;;;;;;6.53;4.27;;;8.80;99.90;;;;;;5047784;28;20504;-70
2024/03/19 01:17:22;;;;;;;6.63;4.13;;;8.90;99.90;;;;;;5052847;28;20213;-70
2024/03/19 01:19:47;;;;;;;5.60;4.27;;;8.90;99.90;;;;;;5052816;28;20437;-70
2024/03/19 01:22:13;;;;;;;6.30;4.93;;;8.90;99.90;;;;;;5052673;28;20406;-70
2024/03/19 01:24:39;;;;;;;9.17;5.20;;;8.90;99.90;;;;;;5049130;28;20205;-70
2024/03/19 01:27:05;;;;;;;8.13;4.00;;;9.00;99.90;;;;;;5050457;28;20171;-70
2024/03/19 01:29:31;;;;;;;9.00;5.10;;;9.10;99.90;;;;;;5052503;28;20499;-70
2024/03/19 01:31:57;;;;;;;6.43;5.27;;;9.10;99.90;;;;;;5052731;28;20167;-70
2024/03/19 01:34:22;;;;;;;6.90;4.37;;;9.20;99.90;;;;;;5050488;28;20487;-70
2024/03/19 01:36:48;;;;;;;5.37;3.73;;;9.30;99.90;;;;;;5047214;28;20198;-70
2024/03/19 01:39:13;;;;;;;4.10;3.70;;;9.30;99.90;;;;;;5052360;28;20250;-70
2024/03/19 01:41:39;;;;;;;5.33;4.20;;;9.30;99.90;;;;;;5052376;28;20238;-70
2024/03/19 01:44:07;;;;;;;4.77;3.63;;;9.30;99.90;;;;;;5050173;28;20186;-70
2024/03/19 01:46:32;;;;;;;6.93;4.13;;;9.30;99.90;;;;;;5048329;28;20417;-70
2024/03/19 01:48:59;;;;;;;6.50;3.87;;;9.30;99.90;;;;;;5052127;28;20433;-70
2024/03/19 01:51:26;;;;;;;5.20;3.80;;;9.30;99.90;;;;;;5052231;28;20210;-70
2024/03/19 01:53:55;;;;;;;6.83;4.83;;;9.10;99.90;;;;;;5050256;28;20819;-70
2024/03/19 01:56:21;;;;;;;6.97;4.67;;;9.10;99.90;;;;;;5047347;28;20995;-70
2024/03/19 01:58:48;;;;;;;5.07;4.00;;;9.10;99.90;;;;;;5052117;28;20449;-70
2024/03/19 02:01:15;;;;;;;7.60;4.63;;;8.90;99.90;;;;;;5052201;28;20863;-70
2024/03/19 02:03:51;;;;;;;5.33;4.20;;;8.80;99.90;;;;;;5047847;28;20167;-69
2024/03/19 02:06:16;;;;;;;7.20;3.93;;;8.70;99.90;;;;;;5051169;28;20835;-69
2024/03/19 02:08:58;;;;;;;5.93;3.67;;;8.70;99.90;;;;;;5051792;28;20465;-69
2024/03/19 02:11:23;;;;;;;9.80;5.10;;;8.50;99.90;;;;;;5051838;28;20162;-70
2024/03/19 02:13:49;;;;;;;9.80;4.53;;;8.50;99.90;;;;;;5047221;28;20447;-70
2024/03/19 02:16:15;;;;;;;12.43;5.33;;;8.40;99.90;;;;;;5050719;28;20572;-70
2024/03/19 02:18:41;;;;;;;10.90;4.10;;;8.40;99.90;;;;;;5051808;28;20433;-70
2024/03/19 02:21:06;;;;;;;6.97;4.80;;;8.40;99.90;;;;;;5052309;28;20163;-70
2024/03/19 02:23:32;;;;;;;9.30;4.10;;;8.40;99.90;;;;;;5049451;28;20171;-70
2024/03/19 02:25:57;;;;;;;7.50;4.40;;;8.50;99.90;;;;;;5049431;28;20561;-70
2024/03/19 02:28:23;;;;;;;4.40;3.20;;;8.50;99.90;;;;;;5051444;28;20178;-70
2024/03/19 02:30:48;;;;;;;6.87;4.63;;;8.50;99.90;;;;;;5051778;28;20179;-70
2024/03/19 02:33:14;;;;;;;15.50;5.20;;;8.60;99.90;;;;;;5051335;28;20239;-70
2024/03/19 02:35:39;;;;;;;5.77;4.10;;;8.70;99.90;;;;;;5048197;28;20329;-70
2024/03/19 02:38:05;;;;;;;6.77;4.30;;;8.60;99.90;;;;;;5051403;28;20943;-71
2024/03/19 02:40:30;;;;;;;8.60;3.97;;;8.50;99.90;;;;;;5051620;28;20241;-70
2024/03/19 02:42:56;;;;;;;7.90;4.57;;;8.60;99.90;;;;;;5050327;28;20177;-70
2024/03/19 02:45:22;;;;;;;6.70;4.30;;;8.60;99.90;;;;;;5046245;28;20167;-70
2024/03/19 02:47:47;;;;;;;7.07;4.63;;;8.60;99.90;;;;;;5051739;28;20646;-70
2024/03/19 02:50:13;;;;;;;5.00;3.10;;;8.70;99.90;;;;;;5051521;28;20492;-70
2024/03/19 02:52:38;;;;;;;5.77;3.90;;;8.80;99.90;;;;;;5051255;28;20185;-70
2024/03/19 02:55:04;;;;;;;10.83;4.70;;;8.80;99.90;;;;;;5046041;28;20650;-70
2024/03/19 02:57:30;;;;;;;8.00;3.90;;;8.80;99.90;;;;;;5051185;28;20262;-70
2024/03/19 02:59:56;;;;;;;7.93;4.10;;;8.70;99.90;;;;;;5050047;28;20417;-70
2024/03/19 03:02:21;;;;;;;6.00;3.97;;;8.70;99.90;;;;;;5051527;28;20642;-70
2024/03/19 03:04:47;;;;;;;4.23;3.40;;;8.70;99.90;;;;;;5045291;28;20181;-70
2024/03/19 03:07:12;;;;;;;6.53;4.03;;;8.80;99.90;;;;;;5049920;28;20178;-70
2024/03/19 03:09:38;;;;;;;5.03;3.90;;;8.80;99.90;;;;;;5049996;28;20553;-70
2024/03/19 03:12:04;;;;;;;6.30;3.67;;;8.80;99.90;;;;;;5051417;28;20171;-69
2024/03/19 03:14:29;;;;;;;8.00;3.83;;;8.80;99.90;;;;;;5049222;28;20174;-69
2024/03/19 03:16:55;;;;;;;7.23;4.17;;;8.80;99.90;;;;;;5047670;28;20206;-70
2024/03/19 03:19:20;;;;;;;9.10;4.23;;;8.70;99.90;;;;;;5051119;28;20700;-70
2024/03/19 03:21:46;;;;;;;5.03;4.10;;;8.80;99.90;;;;;;5051829;28;20179;-70
2024/03/19 03:24:11;;;;;;;4.97;3.90;;;8.80;99.90;;;;;;5053074;28;20184;-70
2024/03/19 03:26:37;;;;;;;8.20;4.40;;;8.90;99.90;;;;;;5052284;28;20720;-70
2024/03/19 03:29:04;;;;;;;7.40;3.60;;;8.90;99.90;;;;;;5054787;28;20195;-70
2024/03/19 03:31:29;;;;;;;5.00;3.53;;;9.00;99.90;;;;;;5055010;28;20174;-70
2024/03/19 03:33:55;;;;;;;7.20;4.00;;;9.00;99.90;;;;;;5054590;28;20409;-70
2024/03/19 03:36:20;;;;;;;7.73;4.47;;;9.00;99.90;;;;;;5051983;28;20692;-70
2024/03/19 03:38:46;;;;;;;6.60;5.27;;;9.00;99.90;;;;;;5054598;28;20199;-70
2024/03/19 03:41:11;;;;;;;7.60;3.57;;;9.10;99.90;;;;;;5053448;28;20163;-69
2024/03/19 03:43:37;;;;;;;8.30;3.90;;;9.10;99.90;;;;;;5054807;28;20167;-70
2024/03/19 03:46:02;;;;;;;6.50;4.33;;;9.10;99.90;;;;;;5052310;28;20200;-70
2024/03/19 03:48:28;;;;;;;7.00;4.87;;;9.10;99.90;;;;;;5048147;28;20226;-70
2024/03/19 03:50:53;;;;;;;12.33;4.43;;;9.10;99.90;;;;;;5054314;28;20641;-70
2024/03/19 03:53:19;;;;;;;6.27;3.80;;;9.10;99.90;;;;;;5053160;28;20677;-70
2024/03/19 03:55:44;;;;;;;6.57;4.90;;;9.10;99.90;;;;;;5054247;28;20199;-70
2024/03/19 03:58:11;;;;;;;9.13;4.67;;;9.00;99.90;;;;;;5050324;28;20386;-70
2024/03/19 04:00:38;;;;;;;4.93;3.97;;;9.10;99.90;;;;;;5054353;28;20572;-70
2024/03/19 04:03:04;;;;;;;6.50;4.43;;;9.10;99.90;;;;;;5051228;28;20755;-70
2024/03/19 04:05:30;;;;;;;4.67;3.77;;;9.10;99.90;;;;;;5050435;28;20412;-70
2024/03/19 04:07:55;;;;;;;6.33;4.30;;;9.10;99.90;;;;;;5054261;28;20425;-70
2024/03/19 04:10:21;;;;;;;6.73;3.87;;;9.10;99.90;;;;;;5054255;28;20542;-70
2024/03/19 04:12:48;;;;;;;5.37;4.43;;;9.10;99.90;;;;;;5054256;28;20178;-70
2024/03/19 04:15:13;;;;;;;9.13;3.97;;;9.10;99.90;;;;;;5048078;28;20187;-70
2024/03/19 04:17:40;;;;;;;7.63;4.07;;;9.10;99.90;;;;;;5053812;28;20472;-70
2024/03/19 04:20:10;;;;;;;7.07;4.77;;;9.10;99.90;;;;;;5053934;28;20167;-70
2024/03/19 04:22:36;;;;;;;11.50;4.20;;;9.10;99.90;;;;;;5054055;28;20402;-70
2024/03/19 04:25:08;;;;;;;8.33;4.30;;;9.10;99.90;;;;;;5047511;28;20421;-70
2024/03/19 04:27:35;;;;;;;5.70;4.67;;;9.10;99.90;;;;;;5053710;28;20209;-70
2024/03/19 04:30:00;;;;;;;6.37;3.80;;;9.00;99.90;;;;;;5053925;28;20410;-70
2024/03/19 04:32:26;;;;;;;5.70;4.90;;;9.00;99.90;;;;;;5053804;28;20414;-70
2024/03/19 04:34:51;;;;;;;7.90;4.90;;;8.90;99.90;;;;;;5048982;28;20190;-70
2024/03/19 04:37:17;;;;;;;9.83;4.53;;;8.80;99.90;;;;;;5050962;28;20568;-70
2024/03/19 04:39:43;;;;;;;9.60;4.10;;;8.70;99.90;;;;;;5053646;28;20717;-70
2024/03/19 04:42:15;;;;;;;7.83;4.90;;;8.70;99.90;;;;;;5053591;28;20197;-70
2024/03/19 04:44:41;;;;;;;7.20;4.37;;;8.60;99.90;;;;;;5051553;28;20164;-70
2024/03/19 04:47:06;;;;;;;6.20;3.30;;;8.50;99.90;;;;;;5050252;28;20779;-70
2024/03/19 04:49:32;;;;;;;5.43;4.17;;;8.50;99.90;;;;;;5053358;28;20277;-70
2024/03/19 04:51:58;;;;;;;5.40;4.00;;;8.50;99.90;;;;;;5052193;28;20221;-70
2024/03/19 04:54:23;;;;;;;9.33;3.83;;;8.40;99.90;;;;;;5051185;28;20234;-70
2024/03/19 04:56:49;;;;;;;5.90;3.97;;;8.30;99.90;;;;;;5049165;28;20202;-70
2024/03/19 04:59:14;;;;;;;6.10;4.47;;;8.30;99.90;;;;;;5053151;28;20553;-70
2024/03/19 05:01:40;;;;;;;5.80;3.60;;;8.30;99.90;;;;;;5052541;28;20167;-70
2024/03/19 05:04:05;;;;;;;4.40;3.87;;;8.20;99.90;;;;;;5046313;28;20183;-70
2024/03/19 05:06:31;;;;;;;8.17;4.20;;;8.20;99.90;;;;;;5052844;28;20171;-70
2024/03/19 05:08:57;;;;;;;6.40;4.20;;;8.10;99.90;;;;;;5052911;28;20187;-70
2024/03/19 05:11:22;;;;;;;6.07;4.43;;;8.10;99.90;;;;;;5052909;28;20771;-70
2024/03/19 05:13:48;;;;;;;5.07;4.20;;;8.10;99.90;;;;;;5051161;28;20250;-70
2024/03/19 05:16:13;;;;;;;3.57;3.27;;;8.00;99.90;;;;;;5049071;28;20370;-70
2024/03/19 05:18:39;;;;;;;5.80;3.97;;;8.00;99.90;;;;;;5052597;28;20190;-69
2024/03/19 05:21:04;;;;;;;5.30;4.10;;;8.00;99.90;;;;;;5051553;28;20174;-69
2024/03/19 05:23:30;;;;;;;7.60;4.03;;;8.00;99.90;;;;;;5051425;28;20229;-70
2024/03/19 05:25:56;;;;;;;5.40;3.90;;;8.10;99.90;;;;;;5050068;28;20182;-70
2024/03/19 05:28:22;;;;;;;8.13;4.00;;;8.10;99.90;;;;;;5046721;28;20214;-70
2024/03/19 05:30:47;;;;;;;6.83;4.60;;;8.20;99.90;;;;;;5051373;28;20421;-70
2024/03/19 05:33:14;;;;;;;5.90;4.80;;;8.30;99.90;;;;;;5052571;28;20429;-70
2024/03/19 05:35:40;;;;;;;6.77;3.80;;;8.40;99.90;;;;;;5048666;28;20171;-70
2024/03/19 05:38:05;;;;;;;10.40;5.57;;;8.40;99.90;;;;;;5050603;28;20962;-70
2024/03/19 05:40:31;;;;;;;4.63;4.17;;;8.50;99.90;;;;;;5052385;28;20515;-70
2024/03/19 05:42:57;;;;;;;7.70;4.27;;;8.60;99.90;;;;;;5052440;28;20171;-70
2024/03/19 05:45:22;;;;;;;6.90;4.10;;;8.60;99.90;;;;;;5051607;28;20573;-70
2024/03/19 05:47:48;;;;;;;7.43;4.33;;;8.50;99.90;;;;;;5044252;28;20604;-70
2024/03/19 05:50:13;;;;;;;4.53;3.97;;;8.50;99.90;;;;;;5052237;28;20170;-70
2024/03/19 05:52:40;;;;;;;14.80;5.73;;;8.50;99.90;;;;;;5052223;28;20183;-70
2024/03/19 05:55:06;;;;;;;6.73;4.10;;;8.50;99.90;;;;;;5051836;28;20287;-70
2024/03/19 05:57:32;;;;;;;7.40;5.03;;;8.40;99.90;;;;;;5046324;28;20548;-70
2024/03/19 05:59:58;;;;;;;4.70;4.17;;;8.40;99.90;;;;;;5051774;28;20556;-70
2024/03/19 06:02:23;;;;;;;6.00;4.50;;;8.40;99.90;;;;;;5051874;28;20658;-70
2024/03/19 06:04:49;;;;;;;6.30;3.97;;;8.40;99.90;;;;;;5041562;28;20206;-70
2024/03/19 06:07:15;;;;;;;6.43;3.90;;;8.40;99.90;;;;;;5051958;28;20544;-70
2024/03/19 06:09:43;;;;;;;6.40;4.37;;;8.50;99.90;;;;;;5051766;28;20225;-70
2024/03/19 06:12:09;;;;;;;16.27;4.83;;;8.60;99.90;;;;;;5051719;28;20262;-70
2024/03/19 06:14:35;;;;;;;4.70;3.80;;;8.60;99.90;;;;;;5051970;28;20851;-70
2024/03/19 06:17:00;;;;;;;4.63;3.70;;;8.80;99.90;;;;;;5051667;28;20532;-70
2024/03/19 06:19:26;;;;;;;7.40;3.70;;;9.00;99.90;;;;;;5051853;28;20543;-70
2024/03/19 06:21:52;;;;;;;4.90;3.27;;;9.20;99.90;;;;;;5051946;28;20213;-70
2024/03/19 06:24:17;;;;;;;5.50;4.10;;;9.30;99.90;;;;;;5041712;28;20422;-70
2024/03/19 06:26:43;;;;;;;6.23;4.23;;;9.50;99.90;;;;;;5051159;28;20256;-70
2024/03/19 06:29:08;;;;;;;5.20;4.00;;;9.60;99.90;;;;;;5049305;28;20205;-70
2024/03/19 06:31:34;;;;;;;6.30;3.97;;;9.80;99.90;;;;;;5051252;28;20669;-70
2024/03/19 06:34:00;;;;;;;5.63;4.07;;;10.00;99.90;;;;;;5050334;28;20224;-70
2024/03/19 06:36:26;;;;;;;6.10;4.10;;;10.10;99.90;;;;;;5052013;28;20191;-70
2024/03/19 06:38:52;;;;;;;8.00;5.00;;;10.20;99.90;;;;;;5050286;28;20182;-70
2024/03/19 06:41:18;;;;;;;10.50;4.10;;;10.30;99.90;;;;;;5051644;28;20405;-70
2024/03/19 06:43:43;;;;;;;5.43;4.10;;;10.40;99.90;;;;;;5051646;28;20540;-70
2024/03/19 06:46:09;;;;;;;6.07;4.30;;;10.50;99.90;;;;;;5051495;28;20633;-70
2024/03/19 06:48:35;;;;;;;7.03;4.57;;;10.60;99.90;;;;;;5051515;28;20266;-70
2024/03/19 06:51:01;;;;;;;6.80;3.67;;;10.50;99.90;;;;;;5050158;28;20180;-70
2024/03/19 06:53:27;;;;;;;7.13;5.20;;;10.60;99.90;;;;;;5051347;28;20524;-70
2024/03/19 06:55:54;;;;;;;9.93;5.07;;;10.70;99.90;;;;;;5051515;28;20270;-70
2024/03/19 06:58:19;;;;;;;4.70;4.20;;;10.90;99.90;;;;;;5054813;28;20421;-70
2024/03/19 07:00:47;;;;;;;7.73;4.30;;;11.10;99.90;;;;;;5055626;28;20926;-70
2024/03/19 07:03:13;;;;;;;6.93;4.33;;;11.20;99.90;;;;;;5047285;28;20511;-70
2024/03/19 07:05:38;;;;;;;7.47;4.33;;;11.30;99.90;;;;;;5052942;28;20496;-70
2024/03/19 07:08:04;;;;;;;15.47;4.23;;;11.50;99.90;;;;;;5056463;28;20515;-70
2024/03/19 07:10:30;;;;;;;5.00;4.50;;;11.50;99.90;;;;;;5055690;28;20171;-70
2024/03/19 07:12:55;;;;;;;6.70;4.03;;;11.40;99.90;;;;;;5055329;28;20839;-71
2024/03/19 07:15:21;;;;;;;11.20;4.63;;;11.40;99.90;;;;;;5055202;28;20194;-70
2024/03/19 07:17:49;;;;;;;6.17;4.47;;;11.40;99.90;;;;;;5055150;28;20273;-70
2024/03/19 07:20:18;;;;;;;8.43;5.23;;;11.30;99.90;;;;;;5055179;28;20191;-70
2024/03/19 07:22:44;;;;;;;4.43;4.03;;;11.30;99.90;;;;;;5055565;28;20909;-70
2024/03/19 07:25:10;;;;;;;9.97;4.30;;;11.40;99.90;;;;;;5054932;28;20428;-70
2024/03/19 07:27:42;;;;;;;7.23;4.60;;;11.50;99.90;;;;;;5055006;28;20444;-70
2024/03/19 07:30:09;;;;;;;9.97;5.10;;;11.60;99.90;;;;;;5055098;28;20202;-69
2024/03/19 07:32:35;;;;;;;5.80;4.27;;;11.50;99.90;;;;;;5054928;28;20431;-70
2024/03/19 07:35:04;;;;;;;7.83;4.93;;;11.50;99.90;;;;;;5054710;28;20405;-70
2024/03/19 07:37:31;;;;;;;6.47;4.47;;;11.70;99.90;;;;;;5054740;28;20198;-70
2024/03/19 07:39:57;;;;;;;9.60;4.80;;;11.70;99.90;;;;;;5054857;28;20454;-70
2024/03/19 07:42:22;;;;;;;6.07;4.37;;;11.70;99.90;;;;;;5054828;28;20767;-70
2024/03/19 07:44:50;;;;;;;10.73;3.80;;;11.70;99.90;;;;;;5054955;28;20198;-70
2024/03/19 07:47:15;;;;;;;8.47;4.63;;;11.80;99.90;;;;;;5054729;28;20159;-70
2024/03/19 07:49:40;;;;;;;6.37;4.50;;;11.70;99.90;;;;;;5054615;28;20425;-70
2024/03/19 07:52:07;;;;;;;5.27;4.27;;;11.60;99.90;;;;;;5054490;28;20183;-70
2024/03/19 07:54:32;;;;;;;7.00;4.60;;;11.70;99.90;;;;;;5054493;28;20170;-70
2024/03/19 07:56:58;;;;;;;7.73;4.73;;;11.70;99.90;;;;;;5054272;28;20445;-70
2024/03/19 07:59:23;;;;;;;7.87;4.73;;;11.70;99.90;;;;;;5054464;28;20178;-70
2024/03/19 08:01:50;;;;;;;6.20;4.07;;;11.70;99.90;;;;;;5054348;28;20169;-70
2024/03/19 08:04:16;;;;;;;11.13;4.53;;;11.80;99.90;;;;;;5048929;28;20174;-70
2024/03/19 08:06:41;;;;;;;6.97;4.53;;;11.90;99.90;;;;;;5053962;28;20506;-70
2024/03/19 08:09:10;;;;;;;6.07;4.97;;;11.90;99.90;;;;;;5053898;28;20654;-70
2024/03/19 08:11:36;;;;;;;7.00;3.80;;;11.90;99.90;;;;;;5054009;28;20433;-70
2024/03/19 08:14:01;;;;;;;6.70;4.03;;;11.90;99.90;;;;;;5054265;28;20409;-70
2024/03/19 08:16:27;;;;;;;9.33;5.00;;;12.10;99.90;;;;;;5054332;28;20537;-70
2024/03/19 08:18:53;;;;;;;10.70;4.60;;;12.10;99.90;;;;;;5054023;28;20179;-70
2024/03/19 08:21:22;;;;;;;8.47;5.33;;;12.00;99.90;;;;;;5046860;28;20432;-70
2024/03/19 08:23:48;;;;;;;4.60;4.20;;;12.10;99.90;;;;;;5049341;28;20175;-70
2024/03/19 08:26:17;;;;;;;4.90;4.40;;;12.10;99.90;;;;;;5053583;28;20429;-70
2024/03/19 08:28:46;;;;;;;8.30;4.00;;;12.10;99.90;;;;;;5053565;28;20448;-70
2024/03/19 08:31:12;;;;;;;9.23;5.03;;;12.20;99.90;;;;;;5053597;28;20417;-70
2024/03/19 08:33:38;;;;;;;7.43;5.13;;;12.20;99.90;;;;;;5053650;28;20451;-70
2024/03/19 08:36:05;;;;;;;8.47;5.00;;;12.20;99.90;;;;;;5054182;28;20452;-70
2024/03/19 08:38:37;;;;;;;6.80;5.10;;;12.40;99.90;;;;;;5054348;28;20418;-70
2024/03/19 08:41:06;;;;;;;9.70;5.13;;;12.40;99.90;;;;;;5053176;28;20410;-70
2024/03/19 08:43:31;;;;;;;7.07;4.20;;;12.40;99.90;;;;;;5054003;28;20436;-70
2024/03/19 08:45:57;;;;;;;5.40;4.20;;;12.50;99.90;;;;;;5053866;28;20842;-70
2024/03/19 08:48:22;;;;;;;5.67;4.13;;;12.60;99.90;;;;;;5054237;28;20179;-70
2024/03/19 08:50:48;;;;;;;8.03;5.07;;;12.50;99.90;;;;;;5053779;28;20526;-70
2024/03/19 08:53:13;;;;;;;10.57;5.03;;;12.50;99.90;;;;;;5053974;28;20171;-70
2024/03/19 08:55:39;;;;;;;9.67;5.10;;;12.70;99.90;;;;;;5052357;28;20171;-70
2024/03/19 08:58:05;;;;;;;8.63;5.07;;;12.70;99.90;;;;;;5053899;28;20266;-70
2024/03/19 09:00:31;;;;;;;15.30;5.73;;;12.70;99.90;;;;;;5053839;28;20406;-71
2024/03/19 09:02:57;;;;;;;6.30;4.43;;;12.70;99.90;;;;;;5052935;28;20167;-71
2024/03/19 09:05:23;;;;;;;19.53;6.07;;;12.80;99.90;;;;;;5044274;28;20175;-71
2024/03/19 09:07:48;;;;;;;11.57;6.00;;;13.00;99.90;;;;;;5047800;28;20619;-70
2024/03/19 09:10:14;;;;;;;11.63;6.63;;;13.00;99.90;;;;;;5052390;28;20625;-71
2024/03/19 09:12:39;;;;;;;9.43;7.40;;;13.20;99.90;;;;;;5053370;28;20179;-70
2024/03/19 09:15:11;;;;;;;10.40;7.17;;;13.50;99.90;;;;;;5053056;28;20262;-70
2024/03/19 09:17:37;;;;;;;10.50;8.43;;;14.10;99.90;;;;;;5053223;28;20221;-70
2024/03/19 09:20:06;;;;;;;12.00;8.03;;;14.70;99.90;;;;;;5052626;28;20412;-71
2024/03/19 09:22:32;;;;;;;11.67;7.60;;;15.30;99.90;;;;;;5049504;28;20429;-72
2024/03/19 09:25:01;;;;;;;14.97;7.90;;;15.90;99.90;;;;;;5047263;28;20413;-71
2024/03/19 09:27:27;;;;;;;9.00;6.77;;;16.50;99.90;;;;;;5052972;28;20406;-71
2024/03/19 09:29:53;;;;;;;10.80;7.13;;;17.30;99.90;;;;;;5051341;28;20448;-71
2024/03/19 09:32:19;;;;;;;7.70;6.50;;;18.30;99.90;;;;;;5052699;28;20412;-71
2024/03/19 09:34:45;;;;;;;9.67;6.27;;;19.60;99.90;;;;;;5051685;28;20174;-72
2024/03/19 09:37:11;;;;;;;13.73;6.70;;;21.20;99.90;;;;;;5043014;28;20461;-70
2024/03/19 09:39:36;;;;;;;9.93;7.47;;;22.80;98.20;;;;;;5049647;28;20598;-71
2024/03/19 09:42:10;;;;;;;13.60;6.93;;;24.20;79.70;;;;;;5046889;28;20178;-71
2024/03/19 09:44:36;;;;;;;8.60;6.07;;;25.00;67.50;;;;;;5052599;28;20552;-71
2024/03/19 09:47:04;;;;;;;10.07;7.30;;;25.80;59.80;;;;;;5052273;28;20405;-71
2024/03/19 09:49:35;;;;;;;8.47;5.50;;;26.20;54.40;;;;;;5052417;28;20425;-72
2024/03/19 09:52:05;;;;;;;8.93;7.00;;;26.60;52.40;;;;;;5052301;28;20432;-71
2024/03/19 09:54:31;;;;;;;6.60;5.13;;;27.80;50.50;;;;;;5052357;28;20409;-71
2024/03/19 09:56:57;;;;;;;7.17;6.57;;;28.90;48.10;;;;;;5052018;28;20452;-71
2024/03/19 09:59:25;;;;;;;7.93;7.03;;;29.50;44.40;;;;;;5052220;28;20421;-71
2024/03/19 10:01:54;;;;;;;6.30;5.70;;;30.20;42.30;;;;;;5052317;28;20409;-71
2024/03/19 10:04:20;;;;;;;7.03;5.60;;;30.50;41.90;;;;;;5041467;28;20437;-69
2024/03/19 10:06:47;;;;;;;7.27;5.17;;;30.60;39.80;;;;;;5051795;28;20406;-71
2024/03/19 10:09:16;;;;;;;9.80;7.07;;;30.70;39.60;;;;;;5051865;28;20183;-70
2024/03/19 10:11:42;;;;;;;8.63;5.40;;;30.80;38.50;;;;;;5051797;28;20492;-70
2024/03/19 10:14:09;;;;;;;5.30;4.80;;;30.70;39.10;;;;;;5043365;28;20425;-71
2024/03/19 10:16:42;;;;;;;7.00;6.23;;;30.80;38.70;;;;;;5043229;28;20454;-69
2024/03/19 10:19:10;;;;;;;5.80;5.10;;;31.00;37.90;;;;;;5051813;28;20475;-71
2024/03/19 10:21:35;;;;;;;7.20;5.50;;;31.50;37.90;;;;;;5049192;28;20449;-71
2024/03/19 10:24:15;;;;;;;5.70;5.20;;;32.50;36.90;;;;;;5051286;28;20824;-71
2024/03/19 10:26:42;;;;;;;6.60;3.83;;;32.60;35.50;;;;;;5049816;28;20217;-71
2024/03/19 10:29:12;;;;;;;9.57;4.53;;;33.70;35.90;;;;;;5051784;28;20428;-71
2024/03/19 10:31:37;;;;;;;5.83;5.30;;;34.60;34.00;;;;;;5051740;28;20402;-71
2024/03/19 10:34:05;;;;;;;6.67;5.13;;;35.00;31.70;;;;;;5051587;28;20397;-71
2024/03/19 10:36:35;;;;;;;5.67;4.53;;;35.10;31.70;;;;;;5050705;28;20198;-71
2024/03/19 10:39:02;;;;;;;6.50;4.90;;;35.60;31.30;;;;;;5050346;28;20527;-71
2024/03/19 10:41:29;;;;;;;8.67;6.13;;;35.20;29.90;;;;;;5052015;28;20437;-71
2024/03/19 10:44:00;;;;;;;7.43;5.40;;;35.00;30.00;;;;;;5051633;28;20914;-71
2024/03/19 10:46:30;;;;;;;6.00;4.67;;;35.20;29.20;;;;;;5051481;28;20405;-71
2024/03/19 10:48:56;;;;;;;7.67;4.90;;;35.80;29.70;;;;;;5051397;28;20429;-71
2024/03/19 10:51:24;;;;;;;7.10;6.40;;;35.50;28.70;;;;;;5051223;28;20478;-71
2024/03/19 10:53:51;;;;;;;6.60;4.63;;;34.60;29.10;;;;;;5051432;28;20167;-71
2024/03/19 10:56:18;;;;;;;8.50;5.87;;;33.60;29.80;;;;;;5051299;28;20445;-71
2024/03/19 10:58:46;;;;;;;5.77;5.03;;;32.50;29.60;;;;;;5070834;28;20423;-71
2024/03/19 11:01:16;;;;;;;8.63;4.23;;;31.50;30.50;;;;;;5071073;28;20810;-73
2024/03/19 11:03:41;;;;;;;7.50;6.80;;;30.80;31.30;;;;;;5060552;28;20437;-71
2024/03/19 11:06:22;;;;;;;4.50;4.10;;;30.00;32.30;;;;;;5039318;28;20888;-71
2024/03/19 11:08:56;;;;;;;4.93;3.43;;;30.00;34.40;;;;;;5049605;28;20204;-72
2024/03/19 11:11:35;;;;;;;3.60;3.30;;;29.90;32.90;;;;;;5051218;28;20413;-72
2024/03/19 11:14:05;;;;;;;5.60;2.90;;;30.00;33.10;;;;;;5029889;28;20767;-72
2024/03/19 11:16:39;;;;;;;5.23;3.80;;;31.00;34.70;;;;;;5031106;28;20890;-72
2024/03/19 11:19:15;;;;;;;4.33;3.80;;;32.00;32.30;;;;;;5045270;28;20423;-71
2024/03/19 11:21:44;;;;;;;4.03;3.47;;;32.80;32.20;;;;;;5052318;28;20397;-70
2024/03/19 11:24:32;;;;;;;3.60;3.20;;;34.10;30.90;;;;;;5071269;28;20408;-72
2024/03/19 11:26:59;;;;;;;3.80;3.47;;;34.80;28.80;;;;;;5070624;28;20817;-71
2024/03/19 11:29:37;;;;;;;4.23;3.83;;;34.80;29.00;;;;;;5070044;28;20432;-72
2024/03/19 11:32:04;;;;;;;4.23;3.67;;;35.20;28.60;;;;;;5056502;28;20490;-73
2024/03/19 11:34:29;;;;;;;5.23;3.80;;;35.40;28.60;;;;;;5069925;28;20834;-73
2024/03/19 11:36:55;;;;;;;5.53;4.90;;;36.20;28.60;;;;;;5069382;28;20455;-73
2024/03/19 11:39:22;;;;;;;6.20;4.17;;;36.40;27.70;;;;;;5070741;28;20190;-73
2024/03/19 11:41:48;;;;;;;5.03;4.30;;;36.50;27.50;;;;;;5067036;28;20832;-73
2024/03/19 11:44:16;;;;;;;5.73;4.10;;;37.60;28.10;;;;;;5052455;28;20496;-73
2024/03/19 11:46:52;;;;;;;4.60;4.20;;;37.70;27.00;;;;;;5054308;28;20467;-73
2024/03/19 11:49:22;;;;;;;5.43;4.30;;;37.60;26.00;;;;;;5074538;28;20431;-73
2024/03/19 11:52:05;;;;;;;3.30;3.00;;;37.90;26.50;;;;;;5073190;28;20422;-73
2024/03/19 11:54:35;;;;;;;6.17;4.60;;;38.70;27.00;;;;;;5054481;28;20413;-73
2024/03/19 11:57:00;;;;;;;3.90;3.50;;;38.90;25.80;;;;;;5055865;28;20448;-73
2024/03/19 11:59:28;;;;;;;3.73;2.90;;;38.70;25.60;;;;;;5074389;28;20420;-73
2024/03/19 12:01:56;;;;;;;4.13;3.23;;;38.40;25.40;;;;;;5073879;28;20204;-73
2024/03/19 12:04:23;;;;;;;5.00;2.87;;;37.60;25.10;;;;;;5063746;28;20421;-73
2024/03/19 12:06:49;;;;;;;4.20;3.27;;;37.00;25.70;;;;;;5043363;28;21003;-73
2024/03/19 12:09:19;;;;;;;3.80;2.87;;;37.00;26.10;;;;;;5051036;28;20835;-73
2024/03/19 12:11:47;;;;;;;3.30;3.00;;;37.30;26.10;;;;;;5052688;28;20425;-73
2024/03/19 12:14:15;;;;;;;2.90;2.43;;;37.70;26.20;;;;;;5052542;28;20440;-72
2024/03/19 12:16:41;;;;;;;9.13;2.70;;;38.60;26.50;;;;;;5052507;28;20476;-72
2024/03/19 12:19:11;;;;;;;7.27;3.13;;;39.10;25.70;;;;;;5054043;28;21005;-72
2024/03/19 12:21:45;;;;;;;2.70;2.10;;;39.80;25.20;;;;;;5052673;28;20441;-72
2024/03/19 12:24:14;;;;;;;6.30;1.90;;;39.60;24.20;;;;;;5054063;28;20405;-71
2024/03/19 12:26:45;;;;;;;3.70;1.97;;;40.10;24.60;;;;;;5053786;28;20456;-71
2024/03/19 12:29:18;;;;;;;4.63;1.80;;;40.80;23.80;;;;;;5052713;28;20444;-71
2024/03/19 12:31:49;;;;;;;2.33;2.13;;;41.30;23.70;;;;;;5054197;28;20971;-71
2024/03/19 12:34:37;;;;;;;3.20;2.47;;;41.30;22.70;;;;;;5054025;28;20397;-71
2024/03/19 12:37:05;;;;;;;1.80;1.70;;;41.90;22.80;;;;;;5052235;28;20501;-71
2024/03/19 12:39:32;;;;;;;2.20;1.93;;;41.60;22.20;;;;;;5053754;28;20421;-71
2024/03/19 12:41:57;;;;;;;3.70;1.97;;;41.50;22.50;;;;;;5053813;28;20398;-71
2024/03/19 12:44:23;;;;;;;3.20;2.03;;;41.40;22.30;;;;;;5053688;28;20892;-71
2024/03/19 12:46:49;;;;;;;3.00;1.60;;;41.30;22.60;;;;;;5053469;28;20685;-71
2024/03/19 12:49:14;;;;;;;2.97;1.90;;;41.80;23.00;;;;;;5053605;28;20422;-71